sensor_id;sensor_type;location;lat;lon;timestamp;P1;durP1;ratioP1;P2;durP2;ratioP2
59038;SDS011;44824;43.376;19.630;2023-07-13T00:02:05;13.77;;;5.88;;
59038;SDS011;44824;43.376;19.630;2023-07-13T00:04:49;11.10;;;5.45;;
59038;SDS011;44824;43.376;19.630;2023-07-13T00:07:20;13.07;;;6.88;;
59038;SDS011;44824;43.376;19.630;2023-07-13T00:09:54;11.65;;;5.68;;
59038;SDS011;44824;43.376;19.630;2023-07-13T00:12:28;14.40;;;6.70;;
59038;SDS011;44824;43.376;19.630;2023-07-13T00:17:25;14.50;;;5.93;;
59038;SDS011;44824;43.376;19.630;2023-07-13T00:19:54;12.02;;;6.13;;
59038;SDS011;44824;43.376;19.630;2023-07-13T00:22:24;13.18;;;6.15;;
59038;SDS011;44824;43.376;19.630;2023-07-13T00:25:02;22.17;;;6.88;;
59038;SDS011;44824;43.376;19.630;2023-07-13T00:27:32;14.68;;;6.45;;
59038;SDS011;44824;43.376;19.630;2023-07-13T00:30:00;13.60;;;6.43;;
59038;SDS011;44824;43.376;19.630;2023-07-13T00:32:31;11.85;;;6.53;;
59038;SDS011;44824;43.376;19.630;2023-07-13T00:35:01;11.40;;;6.68;;
59038;SDS011;44824;43.376;19.630;2023-07-13T00:37:32;12.52;;;6.15;;
59038;SDS011;44824;43.376;19.630;2023-07-13T00:40:03;13.93;;;7.03;;
59038;SDS011;44824;43.376;19.630;2023-07-13T00:42:58;10.88;;;6.05;;
59038;SDS011;44824;43.376;19.630;2023-07-13T00:47:56;15.25;;;6.60;;
59038;SDS011;44824;43.376;19.630;2023-07-13T00:50:24;17.77;;;6.45;;
59038;SDS011;44824;43.376;19.630;2023-07-13T00:52:52;13.77;;;6.95;;
59038;SDS011;44824;43.376;19.630;2023-07-13T00:58:33;12.73;;;6.38;;
59038;SDS011;44824;43.376;19.630;2023-07-13T01:01:01;15.80;;;6.45;;
59038;SDS011;44824;43.376;19.630;2023-07-13T01:16:34;13.68;;;6.40;;
59038;SDS011;44824;43.376;19.630;2023-07-13T01:19:09;10.68;;;6.35;;
59038;SDS011;44824;43.376;19.630;2023-07-13T01:21:41;9.73;;;6.07;;
59038;SDS011;44824;43.376;19.630;2023-07-13T01:24:13;11.75;;;6.30;;
59038;SDS011;44824;43.376;19.630;2023-07-13T01:26:42;13.13;;;7.20;;
59038;SDS011;44824;43.376;19.630;2023-07-13T01:29:11;13.40;;;6.30;;
59038;SDS011;44824;43.376;19.630;2023-07-13T01:31:42;11.15;;;6.65;;
59038;SDS011;44824;43.376;19.630;2023-07-13T01:34:30;10.82;;;6.75;;
59038;SDS011;44824;43.376;19.630;2023-07-13T01:36:56;11.52;;;6.60;;
59038;SDS011;44824;43.376;19.630;2023-07-13T01:41:50;13.35;;;7.35;;
59038;SDS011;44824;43.376;19.630;2023-07-13T01:44:16;12.68;;;6.05;;
59038;SDS011;44824;43.376;19.630;2023-07-13T02:18:01;14.63;;;5.90;;
59038;SDS011;44824;43.376;19.630;2023-07-13T02:20:32;14.85;;;5.53;;
59038;SDS011;44824;43.376;19.630;2023-07-13T02:23:05;10.48;;;5.65;;
59038;SDS011;44824;43.376;19.630;2023-07-13T02:25:32;8.93;;;5.22;;
59038;SDS011;44824;43.376;19.630;2023-07-13T02:28:01;10.75;;;6.30;;
59038;SDS011;44824;43.376;19.630;2023-07-13T02:30:47;11.38;;;6.47;;
59038;SDS011;44824;43.376;19.630;2023-07-13T02:33:20;12.10;;;6.40;;
59038;SDS011;44824;43.376;19.630;2023-07-13T02:35:46;14.70;;;6.30;;
59038;SDS011;44824;43.376;19.630;2023-07-13T02:38:15;10.95;;;6.00;;
59038;SDS011;44824;43.376;19.630;2023-07-13T02:40:41;14.20;;;6.53;;
59038;SDS011;44824;43.376;19.630;2023-07-13T02:43:09;13.13;;;6.85;;
59038;SDS011;44824;43.376;19.630;2023-07-13T02:45:36;10.68;;;6.70;;
59038;SDS011;44824;43.376;19.630;2023-07-13T02:48:08;13.25;;;6.25;;
59038;SDS011;44824;43.376;19.630;2023-07-13T02:50:35;10.95;;;5.78;;
59038;SDS011;44824;43.376;19.630;2023-07-13T02:53:02;13.45;;;6.18;;
59038;SDS011;44824;43.376;19.630;2023-07-13T02:55:34;13.80;;;6.22;;
59038;SDS011;44824;43.376;19.630;2023-07-13T03:01:10;10.23;;;5.88;;
59038;SDS011;44824;43.376;19.630;2023-07-13T03:14:34;14.20;;;6.43;;
59038;SDS011;44824;43.376;19.630;2023-07-13T04:17:36;11.70;;;6.38;;
59038;SDS011;44824;43.376;19.630;2023-07-13T04:20:19;12.90;;;6.78;;
59038;SDS011;44824;43.376;19.630;2023-07-13T04:22:48;15.82;;;7.32;;
59038;SDS011;44824;43.376;19.630;2023-07-13T04:25:20;12.32;;;6.13;;
59038;SDS011;44824;43.376;19.630;2023-07-13T04:28:16;20.50;;;6.50;;
59038;SDS011;44824;43.376;19.630;2023-07-13T04:30:53;11.93;;;6.03;;
59038;SDS011;44824;43.376;19.630;2023-07-13T04:33:34;11.98;;;6.00;;
59038;SDS011;44824;43.376;19.630;2023-07-13T04:36:28;11.43;;;5.60;;
59038;SDS011;44824;43.376;19.630;2023-07-13T04:38:58;10.52;;;5.80;;
59038;SDS011;44824;43.376;19.630;2023-07-13T04:44:30;10.57;;;5.20;;
59038;SDS011;44824;43.376;19.630;2023-07-13T04:47:18;13.10;;;5.65;;
59038;SDS011;44824;43.376;19.630;2023-07-13T04:50:22;12.10;;;5.40;;
59038;SDS011;44824;43.376;19.630;2023-07-13T04:53:05;13.10;;;5.80;;
59038;SDS011;44824;43.376;19.630;2023-07-13T04:55:41;19.23;;;7.65;;
59038;SDS011;44824;43.376;19.630;2023-07-13T05:01:19;16.85;;;8.63;;
59038;SDS011;44824;43.376;19.630;2023-07-13T05:19:20;16.60;;;9.40;;
59038;SDS011;44824;43.376;19.630;2023-07-13T05:21:46;15.93;;;8.20;;
59038;SDS011;44824;43.376;19.630;2023-07-13T05:24:13;14.73;;;8.18;;
59038;SDS011;44824;43.376;19.630;2023-07-13T05:26:40;16.80;;;8.80;;
59038;SDS011;44824;43.376;19.630;2023-07-13T05:31:33;15.95;;;8.20;;
59038;SDS011;44824;43.376;19.630;2023-07-13T05:33:59;23.83;;;8.35;;
59038;SDS011;44824;43.376;19.630;2023-07-13T05:41:20;11.43;;;6.20;;
59038;SDS011;44824;43.376;19.630;2023-07-13T05:43:46;13.07;;;6.55;;
59038;SDS011;44824;43.376;19.630;2023-07-13T05:46:15;14.82;;;6.07;;
59038;SDS011;44824;43.376;19.630;2023-07-13T05:48:42;9.57;;;5.63;;
59038;SDS011;44824;43.376;19.630;2023-07-13T05:53:35;13.98;;;5.85;;
59038;SDS011;44824;43.376;19.630;2023-07-13T05:56:01;8.02;;;5.30;;
59038;SDS011;44824;43.376;19.630;2023-07-13T05:58:28;9.98;;;5.63;;
59038;SDS011;44824;43.376;19.630;2023-07-13T06:01:03;13.38;;;6.15;;
59038;SDS011;44824;43.376;19.630;2023-07-13T06:03:31;13.45;;;6.20;;
59038;SDS011;44824;43.376;19.630;2023-07-13T06:06:42;14.30;;;5.82;;
59038;SDS011;44824;43.376;19.630;2023-07-13T06:09:11;10.60;;;5.13;;
59038;SDS011;44824;43.376;19.630;2023-07-13T06:11:40;11.18;;;5.10;;
59038;SDS011;44824;43.376;19.630;2023-07-13T06:17:48;12.32;;;5.20;;
59038;SDS011;44824;43.376;19.630;2023-07-13T06:20:16;11.98;;;5.55;;
59038;SDS011;44824;43.376;19.630;2023-07-13T06:22:44;11.73;;;5.30;;
59038;SDS011;44824;43.376;19.630;2023-07-13T06:25:27;15.38;;;5.18;;
59038;SDS011;44824;43.376;19.630;2023-07-13T06:31:00;99.80;;;9.43;;
59038;SDS011;44824;43.376;19.630;2023-07-13T07:05:10;8.32;;;4.63;;
59038;SDS011;44824;43.376;19.630;2023-07-13T07:07:40;10.50;;;5.13;;
59038;SDS011;44824;43.376;19.630;2023-07-13T07:10:30;11.73;;;4.40;;
59038;SDS011;44824;43.376;19.630;2023-07-13T07:15:52;10.50;;;4.85;;
59038;SDS011;44824;43.376;19.630;2023-07-13T07:18:22;9.05;;;4.80;;
59038;SDS011;44824;43.376;19.630;2023-07-13T07:20:48;8.00;;;4.20;;
59038;SDS011;44824;43.376;19.630;2023-07-13T07:23:32;8.52;;;4.43;;
59038;SDS011;44824;43.376;19.630;2023-07-13T07:26:35;12.32;;;4.30;;
59038;SDS011;44824;43.376;19.630;2023-07-13T07:35:50;16.63;;;6.35;;
59038;SDS011;44824;43.376;19.630;2023-07-13T07:38:18;15.13;;;6.80;;
59038;SDS011;44824;43.376;19.630;2023-07-13T07:40:44;15.85;;;6.72;;
59038;SDS011;44824;43.376;19.630;2023-07-13T07:43:31;12.52;;;5.78;;
59038;SDS011;44824;43.376;19.630;2023-07-13T07:46:00;13.40;;;5.10;;
59038;SDS011;44824;43.376;19.630;2023-07-13T07:48:31;10.55;;;4.95;;
59038;SDS011;44824;43.376;19.630;2023-07-13T07:51:00;9.40;;;5.28;;
59038;SDS011;44824;43.376;19.630;2023-07-13T07:53:26;12.57;;;5.72;;
59038;SDS011;44824;43.376;19.630;2023-07-13T07:55:53;8.82;;;4.50;;
59038;SDS011;44824;43.376;19.630;2023-07-13T07:58:22;11.85;;;4.68;;
59038;SDS011;44824;43.376;19.630;2023-07-13T08:00:50;11.05;;;5.03;;
59038;SDS011;44824;43.376;19.630;2023-07-13T08:03:17;11.73;;;5.10;;
59038;SDS011;44824;43.376;19.630;2023-07-13T08:05:59;10.07;;;4.70;;
59038;SDS011;44824;43.376;19.630;2023-07-13T08:08:28;8.15;;;4.22;;
59038;SDS011;44824;43.376;19.630;2023-07-13T08:10:56;10.82;;;4.88;;
59038;SDS011;44824;43.376;19.630;2023-07-13T08:13:26;9.57;;;4.20;;
59038;SDS011;44824;43.376;19.630;2023-07-13T08:15:54;9.15;;;4.22;;
59038;SDS011;44824;43.376;19.630;2023-07-13T08:18:50;10.35;;;4.20;;
59038;SDS011;44824;43.376;19.630;2023-07-13T08:21:18;9.70;;;4.22;;
59038;SDS011;44824;43.376;19.630;2023-07-13T08:23:47;9.43;;;4.05;;
59038;SDS011;44824;43.376;19.630;2023-07-13T08:26:14;11.90;;;4.10;;
59038;SDS011;44824;43.376;19.630;2023-07-13T08:28:41;9.27;;;3.83;;
59038;SDS011;44824;43.376;19.630;2023-07-13T08:31:07;13.68;;;4.28;;
59038;SDS011;44824;43.376;19.630;2023-07-13T08:53:34;10.20;;;3.80;;
59038;SDS011;44824;43.376;19.630;2023-07-13T08:56:03;13.63;;;4.22;;
59038;SDS011;44824;43.376;19.630;2023-07-13T08:58:35;9.23;;;4.10;;
59038;SDS011;44824;43.376;19.630;2023-07-13T09:04:16;9.20;;;4.00;;
59038;SDS011;44824;43.376;19.630;2023-07-13T09:06:58;10.88;;;4.07;;
59038;SDS011;44824;43.376;19.630;2023-07-13T09:09:48;10.05;;;4.38;;
59038;SDS011;44824;43.376;19.630;2023-07-13T09:12:19;25.48;;;5.03;;
59038;SDS011;44824;43.376;19.630;2023-07-13T09:17:51;10.07;;;3.80;;
59038;SDS011;44824;43.376;19.630;2023-07-13T09:20:27;13.32;;;4.28;;
59038;SDS011;44824;43.376;19.630;2023-07-13T09:23:02;10.73;;;4.45;;
59038;SDS011;44824;43.376;19.630;2023-07-13T09:25:49;11.80;;;4.22;;
59038;SDS011;44824;43.376;19.630;2023-07-13T09:31:03;10.43;;;4.20;;
59038;SDS011;44824;43.376;19.630;2023-07-13T09:33:36;8.82;;;3.85;;
59038;SDS011;44824;43.376;19.630;2023-07-13T09:38:58;8.93;;;3.67;;
59038;SDS011;44824;43.376;19.630;2023-07-13T09:44:31;10.10;;;4.18;;
59038;SDS011;44824;43.376;19.630;2023-07-13T09:47:03;13.40;;;4.65;;
59038;SDS011;44824;43.376;19.630;2023-07-13T09:49:41;17.10;;;4.50;;
59038;SDS011;44824;43.376;19.630;2023-07-13T09:52:13;8.98;;;3.70;;
59038;SDS011;44824;43.376;19.630;2023-07-13T09:54:44;9.88;;;3.53;;
59038;SDS011;44824;43.376;19.630;2023-07-13T09:57:19;8.18;;;3.78;;
59038;SDS011;44824;43.376;19.630;2023-07-13T09:59:54;10.98;;;3.90;;
59038;SDS011;44824;43.376;19.630;2023-07-13T15:27:02;14.10;;;7.78;;
59038;SDS011;44824;43.376;19.630;2023-07-13T15:29:41;16.20;;;7.22;;
59038;SDS011;44824;43.376;19.630;2023-07-13T15:32:30;15.40;;;7.70;;
59038;SDS011;44824;43.376;19.630;2023-07-13T15:49:40;18.35;;;7.20;;
59038;SDS011;44824;43.376;19.630;2023-07-13T15:55:25;15.35;;;7.28;;
59038;SDS011;44824;43.376;19.630;2023-07-13T15:58:16;15.80;;;7.30;;
59038;SDS011;44824;43.376;19.630;2023-07-13T16:04:09;13.75;;;7.40;;
59038;SDS011;44824;43.376;19.630;2023-07-13T16:09:56;15.48;;;7.40;;
59038;SDS011;44824;43.376;19.630;2023-07-13T16:12:45;14.98;;;7.25;;
59038;SDS011;44824;43.376;19.630;2023-07-13T16:23:52;18.77;;;7.18;;
59038;SDS011;44824;43.376;19.630;2023-07-13T16:26:39;17.70;;;7.55;;
59038;SDS011;44824;43.376;19.630;2023-07-13T16:29:42;16.65;;;7.55;;
59038;SDS011;44824;43.376;19.630;2023-07-13T16:35:33;17.48;;;7.60;;
59038;SDS011;44824;43.376;19.630;2023-07-13T16:38:03;19.40;;;7.95;;
59038;SDS011;44824;43.376;19.630;2023-07-13T16:43:00;15.30;;;7.60;;
59038;SDS011;44824;43.376;19.630;2023-07-13T16:45:46;18.43;;;8.00;;
59038;SDS011;44824;43.376;19.630;2023-07-13T16:54:21;18.35;;;8.27;;
59038;SDS011;44824;43.376;19.630;2023-07-13T16:56:48;16.67;;;7.50;;
59038;SDS011;44824;43.376;19.630;2023-07-13T16:59:23;17.83;;;8.40;;
59038;SDS011;44824;43.376;19.630;2023-07-13T17:01:52;29.17;;;10.25;;
59038;SDS011;44824;43.376;19.630;2023-07-13T17:06:46;22.08;;;10.50;;
59038;SDS011;44824;43.376;19.630;2023-07-13T17:09:21;31.77;;;12.95;;
59038;SDS011;44824;43.376;19.630;2023-07-13T17:12:28;30.75;;;13.75;;
59038;SDS011;44824;43.376;19.630;2023-07-13T17:15:00;27.05;;;10.95;;
59038;SDS011;44824;43.376;19.630;2023-07-13T17:20:29;19.42;;;9.35;;
59038;SDS011;44824;43.376;19.630;2023-07-13T17:26:04;37.85;;;18.13;;
59038;SDS011;44824;43.376;19.630;2023-07-13T17:28:32;30.92;;;16.10;;
59038;SDS011;44824;43.376;19.630;2023-07-13T17:33:39;30.95;;;15.10;;
59038;SDS011;44824;43.376;19.630;2023-07-13T17:38:47;33.53;;;17.38;;
59038;SDS011;44824;43.376;19.630;2023-07-13T17:42:04;33.53;;;14.93;;
59038;SDS011;44824;43.376;19.630;2023-07-13T17:44:41;65.55;;;16.77;;
59038;SDS011;44824;43.376;19.630;2023-07-13T17:47:30;88.13;;;19.27;;
59038;SDS011;44824;43.376;19.630;2023-07-13T17:50:10;39.58;;;15.50;;
59038;SDS011;44824;43.376;19.630;2023-07-13T18:27:49;37.97;;;18.85;;
59038;SDS011;44824;43.376;19.630;2023-07-13T18:30:32;36.08;;;17.60;;
59038;SDS011;44824;43.376;19.630;2023-07-13T18:51:25;33.28;;;15.70;;
59038;SDS011;44824;43.376;19.630;2023-07-13T18:56:58;28.88;;;16.08;;
59038;SDS011;44824;43.376;19.630;2023-07-13T18:59:31;29.52;;;15.38;;
59038;SDS011;44824;43.376;19.630;2023-07-13T19:02:00;29.70;;;15.45;;
59038;SDS011;44824;43.376;19.630;2023-07-13T19:04:29;28.30;;;14.68;;
59038;SDS011;44824;43.376;19.630;2023-07-13T19:06:57;26.02;;;13.05;;
59038;SDS011;44824;43.376;19.630;2023-07-13T19:09:26;24.83;;;12.82;;
59038;SDS011;44824;43.376;19.630;2023-07-13T19:12:02;115.30;;;16.42;;
59038;SDS011;44824;43.376;19.630;2023-07-13T19:14:31;32.97;;;14.82;;
59038;SDS011;44824;43.376;19.630;2023-07-13T19:17:08;46.15;;;14.13;;
59038;SDS011;44824;43.376;19.630;2023-07-13T19:19:48;22.75;;;13.45;;
59038;SDS011;44824;43.376;19.630;2023-07-13T19:22:39;24.33;;;13.45;;
59038;SDS011;44824;43.376;19.630;2023-07-13T19:25:22;52.70;;;14.52;;
59038;SDS011;44824;43.376;19.630;2023-07-13T19:27:58;25.60;;;13.27;;
59038;SDS011;44824;43.376;19.630;2023-07-13T19:30:49;28.20;;;13.77;;
59038;SDS011;44824;43.376;19.630;2023-07-13T19:33:31;26.42;;;13.32;;
59038;SDS011;44824;43.376;19.630;2023-07-13T19:36:04;32.58;;;12.38;;
59038;SDS011;44824;43.376;19.630;2023-07-13T19:38:45;25.05;;;12.15;;
59038;SDS011;44824;43.376;19.630;2023-07-13T19:41:40;24.50;;;12.70;;
59038;SDS011;44824;43.376;19.630;2023-07-13T19:44:08;28.42;;;12.23;;
59038;SDS011;44824;43.376;19.630;2023-07-13T19:46:47;25.90;;;12.23;;
59038;SDS011;44824;43.376;19.630;2023-07-13T19:49:35;21.65;;;12.48;;
59038;SDS011;44824;43.376;19.630;2023-07-13T19:52:13;19.15;;;11.05;;
59038;SDS011;44824;43.376;19.630;2023-07-13T19:54:40;18.83;;;11.50;;
59038;SDS011;44824;43.376;19.630;2023-07-13T19:59:52;23.05;;;11.73;;
59038;SDS011;44824;43.376;19.630;2023-07-13T20:02:41;18.00;;;10.90;;
59038;SDS011;44824;43.376;19.630;2023-07-13T20:05:16;22.05;;;10.85;;
59038;SDS011;44824;43.376;19.630;2023-07-13T20:08:11;20.48;;;11.20;;
59038;SDS011;44824;43.376;19.630;2023-07-13T20:10:51;19.52;;;11.70;;
59038;SDS011;44824;43.376;19.630;2023-07-13T20:13:29;19.58;;;11.50;;
59038;SDS011;44824;43.376;19.630;2023-07-13T20:16:03;20.98;;;10.98;;
59038;SDS011;44824;43.376;19.630;2023-07-13T20:26:51;32.08;;;11.30;;
59038;SDS011;44824;43.376;19.630;2023-07-13T20:29:23;19.10;;;10.68;;
59038;SDS011;44824;43.376;19.630;2023-07-13T20:31:49;22.15;;;11.65;;
59038;SDS011;44824;43.376;19.630;2023-07-13T20:34:23;19.05;;;11.07;;
59038;SDS011;44824;43.376;19.630;2023-07-13T20:37:02;17.98;;;10.80;;
59038;SDS011;44824;43.376;19.630;2023-07-13T20:45:55;20.98;;;11.77;;
59038;SDS011;44824;43.376;19.630;2023-07-13T20:48:40;19.85;;;10.85;;
59038;SDS011;44824;43.376;19.630;2023-07-13T20:51:29;17.45;;;10.82;;
59038;SDS011;44824;43.376;19.630;2023-07-13T20:54:21;20.70;;;11.18;;
59038;SDS011;44824;43.376;19.630;2023-07-13T20:56:50;23.02;;;12.90;;
59038;SDS011;44824;43.376;19.630;2023-07-13T20:59:58;18.05;;;10.55;;
59038;SDS011;44824;43.376;19.630;2023-07-13T21:02:30;20.23;;;11.77;;
59038;SDS011;44824;43.376;19.630;2023-07-13T21:28:59;20.85;;;11.25;;
59038;SDS011;44824;43.376;19.630;2023-07-13T21:37:37;27.17;;;12.48;;
59038;SDS011;44824;43.376;19.630;2023-07-13T21:46:04;20.08;;;11.15;;
59038;SDS011;44824;43.376;19.630;2023-07-13T21:48:55;22.30;;;11.55;;
59038;SDS011;44824;43.376;19.630;2023-07-13T21:51:44;20.48;;;10.85;;
59038;SDS011;44824;43.376;19.630;2023-07-13T21:54:44;23.75;;;11.75;;
59038;SDS011;44824;43.376;19.630;2023-07-13T21:57:22;18.45;;;11.23;;
59038;SDS011;44824;43.376;19.630;2023-07-13T21:59:52;19.02;;;11.57;;
59038;SDS011;44824;43.376;19.630;2023-07-13T22:02:25;23.63;;;11.50;;
59038;SDS011;44824;43.376;19.630;2023-07-13T22:04:57;20.48;;;12.32;;
59038;SDS011;44824;43.376;19.630;2023-07-13T22:07:30;17.98;;;11.40;;
59038;SDS011;44824;43.376;19.630;2023-07-13T22:10:03;18.42;;;11.25;;
59038;SDS011;44824;43.376;19.630;2023-07-13T22:12:38;20.15;;;11.63;;
59038;SDS011;44824;43.376;19.630;2023-07-13T22:15:18;21.50;;;11.45;;
59038;SDS011;44824;43.376;19.630;2023-07-13T22:17:56;20.33;;;11.20;;
59038;SDS011;44824;43.376;19.630;2023-07-13T22:20:31;21.23;;;10.70;;
59038;SDS011;44824;43.376;19.630;2023-07-13T22:22:58;19.13;;;10.25;;
59038;SDS011;44824;43.376;19.630;2023-07-13T22:28:10;17.70;;;10.57;;
59038;SDS011;44824;43.376;19.630;2023-07-13T22:30:41;17.50;;;10.27;;
59038;SDS011;44824;43.376;19.630;2023-07-13T22:33:25;20.77;;;10.75;;
59038;SDS011;44824;43.376;19.630;2023-07-13T22:36:00;16.08;;;10.00;;
59038;SDS011;44824;43.376;19.630;2023-07-13T22:41:46;17.60;;;10.68;;
59038;SDS011;44824;43.376;19.630;2023-07-13T22:47:15;25.48;;;11.15;;
59038;SDS011;44824;43.376;19.630;2023-07-13T22:50:11;19.85;;;10.95;;
59038;SDS011;44824;43.376;19.630;2023-07-13T22:52:43;20.55;;;10.98;;
59038;SDS011;44824;43.376;19.630;2023-07-13T22:55:21;41.90;;;11.27;;
59038;SDS011;44824;43.376;19.630;2023-07-13T22:57:53;20.85;;;11.52;;
59038;SDS011;44824;43.376;19.630;2023-07-13T23:00:27;19.48;;;10.75;;
59038;SDS011;44824;43.376;19.630;2023-07-13T23:02:57;18.15;;;9.68;;
59038;SDS011;44824;43.376;19.630;2023-07-13T23:05:23;15.55;;;9.68;;
59038;SDS011;44824;43.376;19.630;2023-07-13T23:08:05;26.08;;;9.57;;
59038;SDS011;44824;43.376;19.630;2023-07-13T23:10:37;16.98;;;9.85;;
59038;SDS011;44824;43.376;19.630;2023-07-13T23:13:03;18.85;;;10.57;;
59038;SDS011;44824;43.376;19.630;2023-07-13T23:15:30;27.17;;;10.32;;
59038;SDS011;44824;43.376;19.630;2023-07-13T23:18:02;19.33;;;9.60;;
59038;SDS011;44824;43.376;19.630;2023-07-13T23:20:29;19.65;;;9.25;;
59038;SDS011;44824;43.376;19.630;2023-07-13T23:23:02;19.13;;;10.93;;
59038;SDS011;44824;43.376;19.630;2023-07-13T23:25:32;16.92;;;9.70;;
59038;SDS011;44824;43.376;19.630;2023-07-13T23:28:05;15.00;;;9.95;;
59038;SDS011;44824;43.376;19.630;2023-07-13T23:30:35;17.70;;;10.75;;
59038;SDS011;44824;43.376;19.630;2023-07-13T23:33:08;18.80;;;9.90;;
59038;SDS011;44824;43.376;19.630;2023-07-13T23:35:40;17.00;;;10.67;;
59038;SDS011;44824;43.376;19.630;2023-07-13T23:38:29;20.20;;;10.90;;
59038;SDS011;44824;43.376;19.630;2023-07-13T23:41:24;17.45;;;10.77;;
59038;SDS011;44824;43.376;19.630;2023-07-13T23:44:14;18.75;;;10.68;;
59038;SDS011;44824;43.376;19.630;2023-07-13T23:46:47;16.85;;;10.93;;
59038;SDS011;44824;43.376;19.630;2023-07-13T23:49:30;17.20;;;10.85;;
59038;SDS011;44824;43.376;19.630;2023-07-13T23:52:02;22.27;;;10.88;;
59038;SDS011;44824;43.376;19.630;2023-07-13T23:54:54;21.23;;;10.95;;
59038;SDS011;44824;43.376;19.630;2023-07-13T23:57:20;20.58;;;10.93;;
59038;SDS011;44824;43.376;19.630;2023-07-13T23:59:50;16.02;;;10.55;;
